createdAt,value
2015-10-24T00:00:12.080Z,8.25
2015-10-24T00:00:24.408Z,8.25
2015-10-24T00:00:36.736Z,8.35
2015-10-24T00:00:49.064Z,8.63
2015-10-24T00:01:01.408Z,8.54
2015-10-24T00:01:13.755Z,8.35
2015-10-24T00:01:26.083Z,8.63
2015-10-24T00:01:38.427Z,8.63
2015-10-24T00:01:50.770Z,8.73
2015-10-24T00:02:03.114Z,8.63
2015-10-24T00:02:15.460Z,9.01
2015-10-24T00:02:27.772Z,8.82
2015-10-24T00:02:40.100Z,8.73
2015-10-24T00:02:52.413Z,8.82
2015-10-24T00:03:04.757Z,8.92
2015-10-24T00:03:17.150Z,8.92
2015-10-24T00:03:29.478Z,8.73
2015-10-24T00:03:41.822Z,8.92
2015-10-24T00:03:54.166Z,8.82
2015-10-24T00:04:06.528Z,9.01
2015-10-24T00:04:18.185Z,8.92
2015-10-24T00:04:30.544Z,8.82
2015-10-24T00:04:42.872Z,8.92
2015-10-24T00:04:55.200Z,8.82
2015-10-24T00:05:07.530Z,8.92
2015-10-24T00:05:19.858Z,9.01
2015-10-24T00:05:32.046Z,9.01
2015-10-24T00:05:44.374Z,8.92
2015-10-24T00:05:56.702Z,8.92
2015-10-24T00:06:09.065Z,8.82
2015-10-24T00:06:21.424Z,8.73
2015-10-24T00:06:33.768Z,8.92
2015-10-24T00:06:46.096Z,9.11
2015-10-24T00:06:58.424Z,8.92
2015-10-24T00:07:10.771Z,9.3
2015-10-24T00:07:23.349Z,9.2
2015-10-24T00:07:35.693Z,9.3
2015-10-24T00:07:48.021Z,9.2
2015-10-24T00:08:00.349Z,9.58
2015-10-24T00:08:12.696Z,9.48
2015-10-24T00:08:25.039Z,9.39
2015-10-24T00:08:37.399Z,9.2
2015-10-24T00:08:49.758Z,9.48
2015-10-24T00:09:02.102Z,9.67
2015-10-24T00:09:14.432Z,9.48
2015-10-24T00:09:26.588Z,9.58
2015-10-24T00:09:38.916Z,9.77
2015-10-24T00:09:51.260Z,9.2
2015-10-24T00:10:03.588Z,9.2
2015-10-24T00:10:15.920Z,9.2
2015-10-24T00:10:28.264Z,9.48
2015-10-24T00:10:40.639Z,9.2
2015-10-24T00:10:52.998Z,9.2
2015-10-24T00:11:05.327Z,9.39
2015-10-24T00:11:17.672Z,9.2
2015-10-24T00:11:29.985Z,9.3
2015-10-24T00:11:42.313Z,9.11
2015-10-24T00:11:54.657Z,9.01
2015-10-24T00:12:06.985Z,8.92
2015-10-24T00:12:19.315Z,9.11
2015-10-24T00:12:31.659Z,8.92
2015-10-24T00:12:44.018Z,9.01
2015-10-24T00:12:56.362Z,9.01
2015-10-24T00:13:08.690Z,8.63
2015-10-24T00:13:21.021Z,8.73
2015-10-24T00:13:33.349Z,8.73
2015-10-24T00:13:45.677Z,8.54
2015-10-24T00:13:57.990Z,8.35
2015-10-24T00:14:10.318Z,8.54
2015-10-24T00:14:22.649Z,8.54
2015-10-24T00:14:34.993Z,8.63
2015-10-24T00:14:47.337Z,8.63
2015-10-24T00:14:59.696Z,8.35
2015-10-24T00:15:12.074Z,8.44
2015-10-24T00:15:24.433Z,8.63
2015-10-24T00:15:36.746Z,9.01
2015-10-24T00:15:49.074Z,9.11
2015-10-24T00:16:01.402Z,9.11
2015-10-24T00:16:13.733Z,9.2
2015-10-24T00:16:26.046Z,9.48
2015-10-24T00:16:38.374Z,9.3
2015-10-24T00:16:50.733Z,9.48
2015-10-24T00:17:03.061Z,9.67
2015-10-24T00:17:15.423Z,9.77
2015-10-24T00:17:27.063Z,9.58
2015-10-24T00:17:39.438Z,9.77
2015-10-24T00:17:51.860Z,10.05
2015-10-24T00:18:04.173Z,9.77
2015-10-24T00:18:16.504Z,10.15
2015-10-24T00:18:28.832Z,10.25
2015-10-24T00:18:41.160Z,9.86
2015-10-24T00:18:53.488Z,10.34
2015-10-24T00:19:05.801Z,10.34
2015-10-24T00:19:18.147Z,10.34
2015-10-24T00:19:30.491Z,10.15
2015-10-24T00:19:42.866Z,10.25
2015-10-24T00:19:55.226Z,10.25
2015-10-24T00:20:07.569Z,10.25
2015-10-24T00:20:19.900Z,10.25
2015-10-24T00:20:32.213Z,10.34
2015-10-24T00:20:44.541Z,10.05
2015-10-24T00:20:56.729Z,10.25
2015-10-24T00:21:09.057Z,10.15
2015-10-24T00:21:21.387Z,10.05
2015-10-24T00:21:33.715Z,10.05
2015-10-24T00:21:45.902Z,10.44
2015-10-24T00:21:58.277Z,10.34
2015-10-24T00:22:10.637Z,10.05
2015-10-24T00:22:22.984Z,11
2015-10-24T00:22:35.312Z,10.82
2015-10-24T00:22:47.655Z,11.1
2015-10-24T00:22:59.984Z,11.19
2015-10-24T00:23:12.312Z,11.57
2015-10-24T00:23:24.643Z,11.57
2015-10-24T00:23:36.971Z,11.76
2015-10-24T00:23:49.299Z,11.95
2015-10-24T00:24:01.643Z,11.86
2015-10-24T00:24:14.004Z,12.24
2015-10-24T00:24:26.364Z,11.95
2015-10-24T00:24:38.707Z,12.24
2015-10-24T00:24:51.035Z,12.71
2015-10-24T00:25:03.364Z,12.43
2015-10-24T00:25:15.695Z,12.34
2015-10-24T00:25:28.023Z,12.43
2015-10-24T00:25:40.351Z,12.9
2015-10-24T00:25:52.679Z,12.81
2015-10-24T00:26:04.304Z,12.61
2015-10-24T00:26:16.635Z,13.09
2015-10-24T00:26:29.010Z,12.8
2015-10-24T00:26:41.370Z,13.09
2015-10-24T00:26:53.729Z,13.09
2015-10-24T00:27:06.041Z,12.99
2015-10-24T00:27:18.372Z,13.09
2015-10-24T00:27:30.715Z,13.09
2015-10-24T00:27:43.028Z,13.09
2015-10-24T00:27:55.356Z,13.09
2015-10-24T00:28:07.684Z,12.99
2015-10-24T00:28:20.031Z,13.09
2015-10-24T00:28:32.375Z,12.99
2015-10-24T00:28:44.734Z,13.28
2015-10-24T00:28:57.093Z,12.71
2015-10-24T00:29:09.453Z,12.99
2015-10-24T00:29:21.831Z,12.61
2015-10-24T00:29:34.159Z,12.71
2015-10-24T00:29:46.471Z,12.61
2015-10-24T00:29:58.799Z,12.71
2015-10-24T00:30:11.128Z,12.8
2015-10-24T00:30:23.317Z,12.71
2015-10-24T00:30:35.317Z,12.71
2015-10-24T00:30:47.208Z,12.9
2015-10-24T00:30:59.083Z,12.99
2015-10-24T00:31:11.301Z,12.71
2015-10-24T00:31:23.523Z,12.8
2015-10-24T00:31:35.758Z,12.61
2015-10-24T00:31:47.230Z,12.61
2015-10-24T00:31:59.558Z,12.61
2015-10-24T00:32:11.761Z,12.99
2015-10-24T00:32:23.968Z,12.99
2015-10-24T00:32:36.296Z,13.18
2015-10-24T00:32:48.624Z,13.46
2015-10-24T00:33:00.952Z,13.28
2015-10-24T00:33:13.296Z,13.46
2015-10-24T00:33:25.642Z,13.37
2015-10-24T00:33:38.002Z,12.9
2015-10-24T00:33:50.361Z,13.18
2015-10-24T00:34:02.689Z,13.18
2015-10-24T00:34:15.017Z,13.18
2015-10-24T00:34:27.348Z,13.18
2015-10-24T00:34:39.691Z,13.09
2015-10-24T00:34:52.019Z,13.09
2015-10-24T00:35:04.348Z,13.09
2015-10-24T00:35:16.691Z,13.09
2015-10-24T00:35:29.054Z,13.28
2015-10-24T00:35:41.413Z,13.18
2015-10-24T00:35:53.757Z,13.56
2015-10-24T00:36:06.085Z,13.37
2015-10-24T00:36:18.397Z,13.37
2015-10-24T00:36:30.729Z,13.28
2015-10-24T00:36:43.057Z,13.56
2015-10-24T00:36:55.400Z,13.46
2015-10-24T00:37:07.729Z,13.37
2015-10-24T00:37:20.057Z,13.65
2015-10-24T00:37:32.403Z,13.65
2015-10-24T00:37:44.778Z,13.46
2015-10-24T00:37:57.138Z,13.46
2015-10-24T00:38:09.482Z,13.46
2015-10-24T00:38:21.810Z,13.65
2015-10-24T00:38:34.155Z,13.65
2015-10-24T00:38:46.484Z,13.56
2015-10-24T00:38:58.812Z,13.56
2015-10-24T00:39:11.140Z,13.65
2015-10-24T00:39:23.468Z,14.03
2015-10-24T00:39:35.815Z,13.94
2015-10-24T00:39:48.174Z,14.22
2015-10-24T00:40:00.533Z,13.65
2015-10-24T00:40:12.877Z,14.03
2015-10-24T00:40:25.205Z,14.13
2015-10-24T00:40:37.535Z,14.13
2015-10-24T00:40:49.864Z,13.94
2015-10-24T00:41:02.192Z,13.84
2015-10-24T00:41:14.535Z,13.84
2015-10-24T00:41:26.867Z,14.51
2015-10-24T00:41:39.210Z,14.03
2015-10-24T00:41:51.538Z,14.13
2015-10-24T00:42:03.882Z,14.03
2015-10-24T00:42:16.242Z,14.13
2015-10-24T00:42:28.573Z,13.94
2015-10-24T00:42:40.885Z,14.03
2015-10-24T00:42:53.229Z,13.94
2015-10-24T00:43:05.541Z,14.03
2015-10-24T00:43:17.901Z,14.13
2015-10-24T00:43:30.248Z,14.03
2015-10-24T00:43:42.591Z,14.03
2015-10-24T00:43:54.935Z,13.94
2015-10-24T00:44:07.279Z,14.13
2015-10-24T00:44:19.607Z,13.94
2015-10-24T00:44:31.937Z,14.22
2015-10-24T00:44:44.265Z,14.03
2015-10-24T00:44:55.890Z,14.22
2015-10-24T00:45:08.218Z,14.13
2015-10-24T00:45:20.546Z,14.03
2015-10-24T00:45:32.893Z,14.03
2015-10-24T00:45:45.221Z,14.13
2015-10-24T00:45:56.878Z,14.03
2015-10-24T00:46:09.237Z,14.13
2015-10-24T00:46:21.612Z,14.13
2015-10-24T00:46:33.255Z,13.75
2015-10-24T00:46:45.583Z,13.94
2015-10-24T00:46:57.911Z,13.65
2015-10-24T00:47:10.239Z,13.65
2015-10-24T00:47:22.567Z,13.46
2015-10-24T00:47:34.884Z,13.56
2015-10-24T00:47:47.227Z,13.65
2015-10-24T00:47:59.587Z,13.65
2015-10-24T00:48:11.930Z,13.46
2015-10-24T00:48:24.305Z,13.56
2015-10-24T00:48:36.682Z,13.37
2015-10-24T00:48:49.011Z,13.37
2015-10-24T00:49:01.339Z,12.99
2015-10-24T00:49:13.667Z,12.99
2015-10-24T00:49:25.995Z,12.99
2015-10-24T00:49:38.326Z,12.9
2015-10-24T00:49:49.232Z,13.18
2015-10-24T00:50:01.560Z,12.99
2015-10-24T00:50:13.904Z,13.09
2015-10-24T00:50:26.248Z,13.18
2015-10-24T00:50:38.610Z,12.9
2015-10-24T00:50:50.970Z,12.9
2015-10-24T00:51:03.298Z,13.18
2015-10-24T00:51:15.626Z,12.8
2015-10-24T00:51:27.954Z,12.71
2015-10-24T00:51:40.284Z,13.09
2015-10-24T00:51:52.628Z,12.99
2015-10-24T00:52:04.956Z,13.18
2015-10-24T00:52:17.300Z,12.71
2015-10-24T00:52:29.644Z,12.71
2015-10-24T00:52:41.990Z,12.71
2015-10-24T00:52:54.350Z,12.61
2015-10-24T00:53:06.943Z,12.42
2015-10-24T00:53:19.272Z,12.42
2015-10-24T00:53:31.600Z,12.04
2015-10-24T00:53:43.931Z,12.23
2015-10-24T00:53:56.275Z,11.94
2015-10-24T00:54:08.603Z,11.94
2015-10-24T00:54:20.931Z,12.23
2015-10-24T00:54:33.275Z,12.14
2015-10-24T00:54:45.620Z,12.23
2015-10-24T00:54:57.995Z,11.76
2015-10-24T00:55:10.339Z,11.67
2015-10-24T00:55:22.652Z,11.67
2015-10-24T00:55:34.998Z,11.95
2015-10-24T00:55:47.326Z,11.76
2015-10-24T00:55:59.655Z,11.76
2015-10-24T00:56:12.014Z,11.57
2015-10-24T00:56:24.342Z,11.67
2015-10-24T00:56:36.690Z,11.67
2015-10-24T00:56:49.018Z,11.67
2015-10-24T00:57:01.393Z,11.67
2015-10-24T00:57:13.752Z,11.67
2015-10-24T00:57:26.112Z,11.67
2015-10-24T00:57:38.332Z,11.29
2015-10-24T00:57:50.661Z,11.38
2015-10-24T00:58:02.989Z,11.38
2015-10-24T00:58:15.317Z,11.19
2015-10-24T00:58:27.645Z,11.19
2015-10-24T00:58:39.976Z,11.29
2015-10-24T00:58:52.304Z,11.1
2015-10-24T00:59:04.648Z,11.1
2015-10-24T00:59:16.992Z,11.1
2015-10-24T00:59:29.351Z,11.38
2015-10-24T00:59:41.698Z,11.19
2015-10-24T00:59:54.026Z,11.19
2015-10-24T01:00:06.354Z,11.19
2015-10-24T01:00:18.682Z,11.29
2015-10-24T01:00:31.042Z,11.57
2015-10-24T01:00:43.371Z,11.67
2015-10-24T01:00:55.699Z,11.48
2015-10-24T01:01:08.074Z,11.67
2015-10-24T01:01:20.402Z,11.67
2015-10-24T01:01:32.777Z,11.29
2015-10-24T01:01:45.108Z,11.1
2015-10-24T01:01:57.436Z,11.29
2015-10-24T01:02:09.780Z,11.19
2015-10-24T01:02:22.124Z,11.19
2015-10-24T01:02:34.546Z,10.72
2015-10-24T01:02:46.877Z,10.82
2015-10-24T01:02:59.236Z,10.72
2015-10-24T01:03:11.611Z,10.82
2015-10-24T01:03:23.955Z,11.1
2015-10-24T01:03:36.267Z,11
2015-10-24T01:03:48.614Z,11.1
2015-10-24T01:04:00.942Z,11
2015-10-24T01:04:13.270Z,11.19
2015-10-24T01:04:25.598Z,11.29
2015-10-24T01:04:37.927Z,11.19
2015-10-24T01:04:50.258Z,11.19
2015-10-24T01:05:02.601Z,11.76
2015-10-24T01:05:14.976Z,11.67
2015-10-24T01:05:27.320Z,11.67
2015-10-24T01:05:39.633Z,11.67
2015-10-24T01:05:51.947Z,11.76
2015-10-24T01:06:04.260Z,11.19
2015-10-24T01:06:16.572Z,11.29
2015-10-24T01:06:28.916Z,11
2015-10-24T01:06:41.228Z,10.91
2015-10-24T01:06:53.576Z,10.82
2015-10-24T01:07:05.920Z,10.72
2015-10-24T01:07:18.279Z,10.34
2015-10-24T01:07:30.623Z,10.34
2015-10-24T01:07:42.967Z,10.25
2015-10-24T01:07:55.298Z,10.34
2015-10-24T01:08:07.610Z,10.25
2015-10-24T01:08:19.954Z,10.44
2015-10-24T01:08:32.267Z,10.44
2015-10-24T01:08:44.610Z,10.25
2015-10-24T01:08:56.941Z,10.06
2015-10-24T01:09:09.284Z,10.06
2015-10-24T01:09:21.659Z,10.25
2015-10-24T01:09:34.019Z,10.06
2015-10-24T01:09:46.365Z,9.87
2015-10-24T01:09:58.694Z,9.68
2015-10-24T01:10:11.022Z,9.87
2015-10-24T01:10:23.350Z,9.78
2015-10-24T01:10:35.662Z,10.06
2015-10-24T01:10:47.992Z,10.06
2015-10-24T01:11:00.321Z,9.87
2015-10-24T01:11:11.946Z,9.78
2015-10-24T01:11:24.274Z,10.06
2015-10-24T01:11:36.633Z,9.87
